Time;durP1;ratioP1;P1;durP2;ratioP2;P2;SDS_P1;SDS_P2;PMS_P1;PMS_P2;Temp;Humidity;BMP_temperature;BMP_pressure;BME280_temperature;BME280_humidity;BME280_pressure;Samples;Min_cycle;Max_cycle;Signal;HPM_P1;HPM_P2
2021/11/02 00:01:08;;;;;;;0.30;0.30;;;8.10;90.90;;;;;;6255655;22;20008;-81
2021/11/02 00:03:34;;;;;;;0.70;0.30;;;8.10;90.90;;;;;;6306804;22;20023;-82
2021/11/02 00:06:02;;;;;;;0.43;0.40;;;8.10;90.90;;;;;;6338423;22;20044;-86
2021/11/02 00:08:28;;;;;;;1.48;0.40;;;8.10;90.90;;;;;;6289468;22;20546;-83
2021/11/02 00:10:57;;;;;;;0.28;0.28;;;8.10;90.90;;;;;;6341516;22;20010;-82
2021/11/02 00:13:36;;;;;;;1.45;0.43;;;7.90;90.80;;;;;;6314503;22;20006;-82
2021/11/02 00:16:05;;;;;;;1.05;0.50;;;8.10;90.90;;;;;;6317876;22;20045;-82
2021/11/02 00:18:33;;;;;;;0.45;0.32;;;8.10;90.90;;;;;;6318859;22;20007;-82
2021/11/02 00:21:00;;;;;;;1.27;0.50;;;8.10;90.90;;;;;;6343063;22;20006;-82
2021/11/02 00:23:35;;;;;;;0.40;0.40;;;8.00;90.90;;;;;;6370342;22;20010;-82
2021/11/02 00:26:19;;;;;;;0.55;0.30;;;7.90;90.90;;;;;;6343480;22;20018;-82
2021/11/02 00:28:44;;;;;;;0.77;0.35;;;8.00;91.00;;;;;;6342857;22;20011;-83
2021/11/02 00:31:10;;;;;;;1.13;0.55;;;8.00;90.90;;;;;;6315852;22;20382;-83
2021/11/02 00:33:35;;;;;;;0.85;0.40;;;8.00;90.90;;;;;;6313308;22;20034;-83
2021/11/02 00:36:01;;;;;;;0.60;0.43;;;7.90;90.90;;;;;;6341780;22;20010;-83
2021/11/02 00:38:27;;;;;;;0.40;0.40;;;7.90;91.00;;;;;;6342461;22;20051;-83
2021/11/02 00:40:53;;;;;;;0.30;0.30;;;7.90;90.90;;;;;;6343909;22;20002;-83
2021/11/02 00:43:19;;;;;;;0.50;0.38;;;7.90;90.90;;;;;;6369527;22;20433;-83
2021/11/02 00:45:45;;;;;;;0.47;0.40;;;7.90;90.90;;;;;;6316253;22;20029;-84
2021/11/02 00:48:13;;;;;;;0.68;0.32;;;7.90;90.90;;;;;;6341659;22;20014;-84
2021/11/02 00:50:44;;;;;;;0.38;0.32;;;7.80;90.80;;;;;;6313822;22;20006;-83
2021/11/02 00:53:10;;;;;;;0.50;0.40;;;7.80;90.90;;;;;;6339938;22;20067;-81
2021/11/02 00:55:36;;;;;;;0.30;0.30;;;7.80;90.90;;;;;;6344043;22;20006;-83
2021/11/02 00:58:05;;;;;;;0.30;0.30;;;7.90;91.00;;;;;;6342013;22;20022;-83
2021/11/02 01:00:32;;;;;;;0.70;0.40;;;7.80;91.00;;;;;;6340471;22;20011;-83
2021/11/02 01:02:58;;;;;;;1.10;0.50;;;7.70;91.00;;;;;;6290222;22;20021;-83
2021/11/02 01:05:24;;;;;;;0.20;0.20;;;7.70;91.10;;;;;;6341880;22;20007;-83
2021/11/02 01:07:49;;;;;;;0.43;0.20;;;7.60;91.00;;;;;;6341605;22;20013;-83
2021/11/02 01:10:16;;;;;;;0.30;0.30;;;7.70;91.10;;;;;;6342205;22;20086;-83
2021/11/02 01:12:44;;;;;;;0.55;0.45;;;7.60;91.30;;;;;;6342486;22;20006;-83
2021/11/02 01:15:11;;;;;;;1.25;0.50;;;7.60;91.10;;;;;;6341565;22;20006;-83
2021/11/02 01:17:37;;;;;;;1.05;0.55;;;7.60;91.20;;;;;;6341153;22;20433;-82
2021/11/02 01:20:06;;;;;;;1.30;0.32;;;7.70;91.20;;;;;;6344092;22;20013;-83
2021/11/02 01:22:33;;;;;;;0.70;0.30;;;7.50;91.10;;;;;;6314400;22;20078;-83
2021/11/02 01:24:58;;;;;;;0.55;0.22;;;7.60;91.10;;;;;;6315958;22;20438;-83
2021/11/02 01:27:24;;;;;;;1.50;0.38;;;7.60;91.10;;;;;;6290007;22;20025;-83
2021/11/02 01:29:53;;;;;;;0.65;0.40;;;7.50;91.10;;;;;;6340906;22;20346;-83
2021/11/02 01:32:19;;;;;;;0.30;0.20;;;7.50;91.20;;;;;;6317755;22;20449;-83
2021/11/02 01:34:45;;;;;;;1.02;0.40;;;7.50;91.20;;;;;;6315435;22;20013;-83
2021/11/02 01:37:11;;;;;;;0.20;0.20;;;7.50;91.20;;;;;;6369160;22;20033;-83
2021/11/02 01:39:36;;;;;;;0.28;0.28;;;7.50;91.20;;;;;;6369105;22;20006;-83
2021/11/02 01:42:03;;;;;;;0.45;0.30;;;7.40;91.20;;;;;;6339781;22;20007;-83
2021/11/02 01:44:30;;;;;;;0.35;0.30;;;7.40;91.20;;;;;;6338767;22;20426;-83
2021/11/02 01:46:56;;;;;;;0.30;0.30;;;7.50;91.30;;;;;;6341226;22;20485;-83
2021/11/02 01:49:22;;;;;;;0.77;0.35;;;7.30;91.20;;;;;;6341511;22;20037;-83
2021/11/02 01:51:49;;;;;;;0.50;0.40;;;7.40;91.30;;;;;;6344028;22;20033;-83
2021/11/02 01:54:17;;;;;;;0.52;0.40;;;7.30;91.20;;;;;;6343638;22;20017;-83
2021/11/02 01:56:48;;;;;;;0.90;0.32;;;7.30;91.20;;;;;;6315417;22;20059;-83
2021/11/02 01:59:15;;;;;;;0.68;0.40;;;7.40;91.20;;;;;;6341369;22;20055;-83
2021/11/02 02:02:07;;;;;;;0.38;0.30;;;7.30;91.20;;;;;;6369385;22;20506;-82
2021/11/02 02:05:11;;;;;;;0.35;0.25;;;7.40;91.20;;;;;;6369055;22;20006;-81
2021/11/02 02:08:02;;;;;;;0.77;0.25;;;7.30;91.20;;;;;;6339869;22;20450;-82
2021/11/02 02:10:49;;;;;;;0.83;0.20;;;7.20;91.20;;;;;;6342021;22;20041;-81
2021/11/02 02:13:38;;;;;;;1.13;0.40;;;7.30;91.20;;;;;;6339048;22;20017;-81
2021/11/02 02:16:26;;;;;;;0.30;0.30;;;7.20;91.20;;;;;;6341021;22;20006;-81
2021/11/02 02:19:02;;;;;;;0.20;0.20;;;7.20;91.20;;;;;;6341335;22;20029;-81
2021/11/02 02:21:53;;;;;;;0.30;0.22;;;7.20;91.30;;;;;;6315124;22;20034;-82
2021/11/02 02:24:42;;;;;;;1.10;0.50;;;7.20;91.30;;;;;;6343468;22;19998;-81
2021/11/02 02:27:32;;;;;;;1.27;0.40;;;7.20;91.30;;;;;;6319245;22;20014;-81
2021/11/02 02:30:01;;;;;;;0.35;0.30;;;7.10;91.20;;;;;;6340984;22;20017;-81
2021/11/02 02:32:28;;;;;;;0.57;0.30;;;7.20;91.20;;;;;;6341261;22;20479;-81
2021/11/02 02:34:59;;;;;;;0.80;0.40;;;7.20;91.30;;;;;;6316221;22;20014;-81
2021/11/02 02:37:28;;;;;;;0.82;0.32;;;7.10;91.30;;;;;;6292435;22;20433;-81
2021/11/02 02:39:55;;;;;;;0.47;0.40;;;7.10;91.20;;;;;;6369300;22;20056;-81
2021/11/02 02:42:22;;;;;;;0.22;0.20;;;7.10;91.20;;;;;;6292200;22;20003;-82
2021/11/02 02:44:50;;;;;;;0.20;0.20;;;7.10;91.30;;;;;;6371162;22;20075;-81
2021/11/02 02:47:18;;;;;;;0.68;0.40;;;7.10;91.30;;;;;;6315363;22;20014;-81
2021/11/02 02:49:47;;;;;;;0.30;0.30;;;7.00;91.30;;;;;;6314334;22;20349;-81
2021/11/02 02:52:14;;;;;;;0.47;0.38;;;7.10;91.30;;;;;;6314934;22;20006;-81
2021/11/02 02:54:43;;;;;;;1.05;0.50;;;7.00;91.40;;;;;;6315162;22;20388;-81
2021/11/02 02:57:11;;;;;;;0.95;0.30;;;7.00;91.40;;;;;;6315204;22;20011;-81
2021/11/02 02:59:38;;;;;;;0.73;0.30;;;6.90;91.40;;;;;;6312698;22;20064;-81
2021/11/02 03:02:06;;;;;;;0.40;0.40;;;7.00;91.40;;;;;;6341738;22;20013;-81
2021/11/02 03:04:34;;;;;;;0.68;0.55;;;6.90;91.40;;;;;;6340778;22;20422;-81
2021/11/02 03:07:02;;;;;;;0.30;0.30;;;6.90;91.40;;;;;;6341482;22;20870;-81
2021/11/02 03:09:29;;;;;;;0.20;0.20;;;7.00;91.40;;;;;;6340972;22;20014;-81
2021/11/02 03:11:56;;;;;;;0.43;0.30;;;7.00;91.40;;;;;;6338549;22;20063;-81
2021/11/02 03:14:33;;;;;;;0.93;0.40;;;7.00;91.40;;;;;;6338928;22;20011;-81
2021/11/02 03:17:07;;;;;;;0.35;0.20;;;6.90;91.40;;;;;;6368688;22;20434;-81
2021/11/02 03:49:40;;;;;;;0.15;0.15;;;6.70;91.60;;;;;;6368634;22;20098;-82
2021/11/02 03:54:54;;;;;;;0.10;0.10;;;6.80;91.70;;;;;;6322067;22;20046;-81
2021/11/02 03:57:34;;;;;;;0.10;0.10;;;6.60;91.60;;;;;;6340820;22;20042;-82
2021/11/02 04:00:42;;;;;;;0.20;0.20;;;6.70;91.60;;;;;;6344312;22;19998;-81
2021/11/02 04:25:17;;;;;;;0.20;0.20;;;6.50;91.70;;;;;;6340128;22;20014;-81
2021/11/02 04:44:20;;;;;;;0.22;0.22;;;6.20;91.70;;;;;;6324327;22;20014;-81
2021/11/02 05:11:40;;;;;;;0.10;0.10;;;6.20;91.70;;;;;;6304089;22;20434;-81
2021/11/02 05:19:41;;;;;;;0.20;0.20;;;6.40;91.70;;;;;;6353685;22;20521;-81
2021/11/02 05:49:14;;;;;;;0.10;0.10;;;6.60;91.50;;;;;;6343699;22;20021;-81
2021/11/02 05:54:42;;;;;;;0.17;0.17;;;6.50;91.50;;;;;;6346400;22;20014;-81
2021/11/02 05:59:52;;;;;;;0.20;0.20;;;6.50;91.50;;;;;;6323963;22;20033;-81
2021/11/02 06:02:36;;;;;;;0.25;0.20;;;6.50;91.50;;;;;;6317550;22;20002;-81
2021/11/02 06:07:51;;;;;;;0.70;0.30;;;6.50;91.60;;;;;;6369564;22;20032;-81
2021/11/02 06:10:52;;;;;;;0.30;0.30;;;6.50;91.60;;;;;;6345173;22;20009;-78
2021/11/02 08:46:40;;;;;;;0.57;0.50;;;8.10;90.80;;;;;;6315219;22;20019;-83
2021/11/02 08:49:07;;;;;;;0.88;0.73;;;8.20;90.80;;;;;;6314016;22;20248;-81
2021/11/02 08:51:34;;;;;;;1.00;0.65;;;8.20;90.80;;;;;;6282782;22;20049;-82
2021/11/02 08:54:02;;;;;;;1.40;0.90;;;8.20;90.80;;;;;;6337668;22;20033;-84
2021/11/02 08:57:08;;;;;;;0.90;0.70;;;8.30;90.80;;;;;;6308732;22;20015;-85
2021/11/02 08:59:34;;;;;;;1.15;0.75;;;8.30;90.80;;;;;;6194218;23;20407;-84
2021/11/02 09:02:07;;;;;;;0.93;0.60;;;8.30;90.80;;;;;;6216111;23;20012;-83
2021/11/02 09:04:33;;;;;;;0.68;0.65;;;8.50;90.80;;;;;;6188822;23;20008;-82
2021/11/02 09:07:03;;;;;;;0.70;0.60;;;8.30;90.70;;;;;;6242289;23;20013;-82
2021/11/02 09:09:33;;;;;;;1.17;0.68;;;8.40;90.80;;;;;;6216321;23;20031;-80
2021/11/02 09:12:02;;;;;;;0.93;0.80;;;8.60;90.80;;;;;;6191345;23;20093;-81
2021/11/02 09:14:33;;;;;;;0.50;0.40;;;8.50;90.80;;;;;;6191918;23;20004;-80
2021/11/02 09:16:58;;;;;;;2.55;0.75;;;8.50;90.80;;;;;;6217071;23;20520;-80
2021/11/02 09:19:28;;;;;;;1.00;0.60;;;8.50;90.80;;;;;;6217198;23;20052;-84
2021/11/02 09:22:02;;;;;;;0.77;0.60;;;8.60;90.80;;;;;;6161670;23;20036;-84
2021/11/02 09:24:35;;;;;;;0.50;0.50;;;8.60;90.80;;;;;;6189656;22;20011;-84
2021/11/02 09:27:15;;;;;;;0.70;0.50;;;8.60;90.80;;;;;;6223749;22;20114;-83
2021/11/02 09:29:41;;;;;;;0.77;0.50;;;8.70;90.80;;;;;;6224820;22;20072;-79
2021/11/02 09:33:11;;;;;;;1.33;0.70;;;8.70;90.80;;;;;;6219629;22;20381;-89
2021/11/02 09:35:38;;;;;;;1.02;0.43;;;8.70;90.80;;;;;;6247073;22;20015;-82
2021/11/02 09:38:22;;;;;;;1.92;0.60;;;8.80;90.80;;;;;;6222721;22;20008;-84
2021/11/02 09:41:20;;;;;;;0.50;0.50;;;8.80;90.80;;;;;;6225135;22;20003;-82
2021/11/02 09:44:17;;;;;;;0.70;0.60;;;8.80;90.70;;;;;;6211393;23;20008;-81
2021/11/02 09:47:23;;;;;;;0.75;0.70;;;8.80;90.70;;;;;;6211451;23;20028;-82
2021/11/02 09:50:28;;;;;;;0.88;0.68;;;8.90;90.80;;;;;;6169745;23;20012;-84
2021/11/02 09:53:33;;;;;;;1.20;0.77;;;8.90;90.80;;;;;;6199385;22;20040;-80
2021/11/02 09:56:31;;;;;;;0.90;0.65;;;9.00;90.80;;;;;;6232700;22;20000;-86
2021/11/02 09:59:35;;;;;;;1.30;0.45;;;9.00;90.80;;;;;;6180341;23;20009;-83
2021/11/02 10:02:39;;;;;;;1.13;0.55;;;8.90;90.80;;;;;;6166401;23;20005;-81
2021/11/02 10:05:45;;;;;;;1.85;0.50;;;8.90;90.80;;;;;;6099988;23;20113;-82
2021/11/02 10:08:42;;;;;;;0.80;0.60;;;9.00;90.80;;;;;;6131028;23;20061;-81
2021/11/02 10:11:24;;;;;;;2.53;0.73;;;9.00;90.90;;;;;;6133587;23;20450;-84
2021/11/02 10:14:10;;;;;;;1.52;1.05;;;9.00;90.90;;;;;;6138505;23;20340;-84
2021/11/02 10:17:13;;;;;;;2.85;0.98;;;9.10;90.80;;;;;;6125748;23;20077;-83
2021/11/02 10:20:12;;;;;;;1.83;1.15;;;9.10;91.10;;;;;;6126263;23;20011;-82
2021/11/02 10:22:55;;;;;;;0.98;0.65;;;9.20;90.80;;;;;;6131289;23;20052;-81
2021/11/02 10:25:52;;;;;;;2.00;0.70;;;9.20;90.80;;;;;;6102114;23;20435;-82
2021/11/02 10:28:43;;;;;;;1.80;0.70;;;9.20;90.80;;;;;;6126723;23;20001;-83
2021/11/02 10:34:34;;;;;;;1.55;1.05;;;9.40;90.80;;;;;;5987819;23;20023;-80
2021/11/02 10:40:31;;;;;;;1.02;0.90;;;9.50;90.70;;;;;;6036472;23;20008;-82
2021/11/02 10:43:53;;;;;;;0.80;0.80;;;9.50;90.70;;;;;;6039243;23;20015;-86
2021/11/02 10:46:29;;;;;;;0.98;0.70;;;9.60;90.70;;;;;;6015631;23;20015;-81
2021/11/02 10:48:59;;;;;;;1.00;0.73;;;9.60;90.70;;;;;;6032849;23;20528;-80
2021/11/02 10:51:42;;;;;;;1.50;0.90;;;9.70;90.70;;;;;;6034931;23;20015;-79
2021/11/02 10:54:21;;;;;;;1.60;0.95;;;9.80;90.80;;;;;;6011126;23;20094;-80
2021/11/02 10:57:15;;;;;;;1.40;0.93;;;9.80;90.70;;;;;;6035491;23;20054;-82
2021/11/02 10:59:45;;;;;;;1.73;0.90;;;9.80;90.60;;;;;;6035086;23;20037;-84
2021/11/02 11:02:28;;;;;;;1.60;1.10;;;9.80;90.60;;;;;;6011876;23;20008;-82
2021/11/02 11:04:56;;;;;;;2.38;1.02;;;9.90;90.70;;;;;;6060753;23;20299;-82
2021/11/02 11:07:22;;;;;;;1.45;0.75;;;9.90;90.60;;;;;;6127496;23;20040;-81
2021/11/02 11:09:52;;;;;;;1.65;0.90;;;10.00;90.70;;;;;;6145105;22;20013;-82
2021/11/02 11:12:20;;;;;;;1.35;0.93;;;9.90;90.60;;;;;;6282898;22;20069;-82
2021/11/02 11:14:51;;;;;;;1.40;0.80;;;10.00;90.60;;;;;;6315044;22;20009;-83
2021/11/02 11:17:25;;;;;;;1.17;0.75;;;10.00;90.60;;;;;;6283795;22;20066;-83
2021/11/02 11:20:12;;;;;;;1.70;0.90;;;10.00;90.60;;;;;;6284497;22;19995;-80
2021/11/02 11:22:42;;;;;;;0.98;0.75;;;10.10;90.60;;;;;;6282418;22;20016;-82
2021/11/02 11:25:19;;;;;;;1.05;0.70;;;10.10;90.60;;;;;;6283744;22;20003;-81
2021/11/02 11:27:55;;;;;;;1.40;0.90;;;10.00;90.60;;;;;;6306992;22;20014;-80
2021/11/02 11:30:37;;;;;;;1.10;0.90;;;10.00;90.60;;;;;;6306520;22;20087;-83
2021/11/02 11:33:14;;;;;;;1.77;0.80;;;10.10;90.70;;;;;;6331423;22;20003;-84
2021/11/02 11:35:46;;;;;;;1.33;0.95;;;10.20;90.60;;;;;;6215585;23;20091;-86
2021/11/02 11:38:14;;;;;;;0.88;0.70;;;10.30;90.60;;;;;;6216911;23;20020;-86
2021/11/02 11:40:42;;;;;;;1.10;0.88;;;10.20;90.50;;;;;;6167932;23;20004;-87
2021/11/02 11:43:10;;;;;;;2.35;0.85;;;10.40;90.50;;;;;;6191128;23;20007;-86
2021/11/02 11:45:39;;;;;;;1.10;0.90;;;10.30;90.50;;;;;;6190936;23;20008;-86
2021/11/02 11:48:12;;;;;;;1.15;0.90;;;10.40;90.60;;;;;;6166469;23;20091;-86
2021/11/02 11:50:40;;;;;;;1.90;1.00;;;10.40;90.60;;;;;;6166832;23;20012;-86
2021/11/02 11:53:07;;;;;;;1.20;0.93;;;10.30;90.50;;;;;;6166500;23;20099;-87
2021/11/02 11:55:37;;;;;;;1.58;0.93;;;10.30;90.60;;;;;;6166270;23;20070;-86
2021/11/02 11:58:09;;;;;;;2.05;1.10;;;10.30;90.60;;;;;;6166634;23;20013;-86
2021/11/02 12:00:38;;;;;;;1.48;1.15;;;10.30;90.60;;;;;;6211456;23;20066;-87
2021/11/02 12:03:16;;;;;;;1.70;1.00;;;10.30;90.60;;;;;;6136557;23;20012;-86
2021/11/02 12:05:44;;;;;;;1.15;0.90;;;10.30;90.60;;;;;;6175695;22;20008;-86
2021/11/02 12:08:44;;;;;;;2.08;1.20;;;10.40;90.60;;;;;;6283468;22;19999;-85
2021/11/02 12:11:15;;;;;;;1.38;0.93;;;10.30;90.60;;;;;;6335032;22;20021;-87
2021/11/02 12:13:41;;;;;;;2.10;1.10;;;10.40;90.60;;;;;;6256596;22;20000;-87
2021/11/02 12:16:20;;;;;;;1.92;1.23;;;10.40;90.50;;;;;;6309371;22;20010;-86
2021/11/02 12:18:53;;;;;;;2.30;1.40;;;10.40;90.50;;;;;;6286376;22;19995;-86
2021/11/02 12:21:21;;;;;;;1.20;1.10;;;10.40;90.50;;;;;;6258306;22;20086;-86
2021/11/02 12:23:51;;;;;;;2.63;1.40;;;10.50;90.50;;;;;;6220794;22;20035;-85
2021/11/02 12:26:17;;;;;;;1.27;0.95;;;10.50;90.50;;;;;;6196069;22;20395;-85
2021/11/02 12:28:47;;;;;;;1.63;1.15;;;10.40;90.50;;;;;;6221638;22;20061;-84
2021/11/02 12:31:16;;;;;;;1.63;1.00;;;10.40;90.50;;;;;;6220678;22;20078;-85
2021/11/02 12:33:52;;;;;;;1.23;0.98;;;10.60;90.50;;;;;;6222526;22;20051;-87
2021/11/02 12:40:18;;;;;;;2.22;1.00;;;10.50;90.40;;;;;;6262326;22;20031;-82
2021/11/02 12:43:03;;;;;;;1.63;1.10;;;10.50;90.40;;;;;;6197316;22;20016;-84
2021/11/02 12:52:19;;;;;;;0.90;0.80;;;10.60;90.50;;;;;;6006546;23;20361;-88
2021/11/02 12:55:11;;;;;;;0.90;0.80;;;10.50;90.40;;;;;;5999770;23;20479;-83
2021/11/02 12:57:41;;;;;;;1.30;0.65;;;10.60;90.40;;;;;;5952704;24;20280;-81
2021/11/02 13:00:26;;;;;;;0.80;0.80;;;10.70;90.40;;;;;;5956873;24;20553;-79
2021/11/02 13:03:19;;;;;;;1.00;0.70;;;10.60;90.40;;;;;;5933534;24;20464;-87
2021/11/02 13:05:57;;;;;;;0.57;0.52;;;10.80;90.40;;;;;;5951510;24;20504;-83
2021/11/02 13:08:38;;;;;;;0.88;0.63;;;10.80;90.40;;;;;;5953177;24;20103;-82
2021/11/02 13:11:07;;;;;;;0.65;0.60;;;10.90;90.40;;;;;;5929468;24;20024;-79
2021/11/02 13:13:53;;;;;;;1.00;0.70;;;10.90;90.30;;;;;;5953431;24;20033;-80
2021/11/02 13:16:19;;;;;;;1.85;1.00;;;11.00;90.30;;;;;;5929693;24;20077;-81
2021/11/02 13:18:45;;;;;;;0.57;0.57;;;11.10;90.30;;;;;;5982754;23;20015;-79
2021/11/02 13:21:38;;;;;;;1.17;0.80;;;11.00;90.30;;;;;;6047502;23;20015;-85
2021/11/02 13:24:17;;;;;;;1.05;0.80;;;11.00;90.30;;;;;;6193437;23;20016;-86
2021/11/02 13:26:45;;;;;;;0.80;0.70;;;11.10;90.30;;;;;;6218425;23;20456;-84
2021/11/02 13:29:15;;;;;;;1.20;0.80;;;11.20;90.30;;;;;;6246242;22;20125;-84
2021/11/02 13:31:43;;;;;;;1.20;0.82;;;11.20;90.20;;;;;;6282624;22;20094;-87
2021/11/02 13:34:13;;;;;;;0.98;0.80;;;11.20;90.10;;;;;;6263979;22;20003;-85
2021/11/02 13:36:39;;;;;;;1.35;0.95;;;11.20;90.20;;;;;;6312824;22;20014;-86
2021/11/02 13:39:08;;;;;;;1.00;0.88;;;11.10;90.20;;;;;;6267148;22;20019;-87
2021/11/02 13:41:37;;;;;;;1.08;0.85;;;11.10;90.20;;;;;;6259756;22;20006;-85
2021/11/02 13:51:45;;;;;;;1.13;1.00;;;11.00;90.30;;;;;;6057699;23;20026;-85
2021/11/02 13:54:11;;;;;;;1.38;1.02;;;10.90;90.30;;;;;;6035722;23;20015;-84
2021/11/02 13:56:41;;;;;;;1.35;0.90;;;10.80;90.30;;;;;;5987382;23;20035;-84
2021/11/02 13:59:08;;;;;;;1.38;0.82;;;10.80;90.40;;;;;;5987247;23;20921;-85
2021/11/02 14:01:45;;;;;;;1.55;1.00;;;10.80;90.40;;;;;;5988123;23;20428;-86
2021/11/02 14:04:32;;;;;;;1.33;0.90;;;10.70;90.50;;;;;;6009629;23;20040;-85
2021/11/02 14:07:16;;;;;;;1.30;1.00;;;10.70;90.50;;;;;;6035942;23;20007;-85
2021/11/02 14:09:55;;;;;;;1.15;1.02;;;10.70;90.50;;;;;;5987582;23;20523;-85
2021/11/02 14:12:32;;;;;;;1.10;0.90;;;10.60;90.50;;;;;;5988884;23;20060;-85
2021/11/02 14:15:16;;;;;;;0.80;0.73;;;10.60;90.50;;;;;;6035285;23;20012;-85
2021/11/02 14:17:44;;;;;;;1.42;1.10;;;10.60;90.50;;;;;;5988116;23;20026;-85
2021/11/02 14:20:34;;;;;;;1.30;0.95;;;10.60;90.50;;;;;;5987907;23;20043;-83
2021/11/02 14:23:01;;;;;;;1.05;0.88;;;10.50;90.50;;;;;;6054787;23;20005;-84
2021/11/02 14:25:38;;;;;;;1.42;0.80;;;10.50;90.50;;;;;;6281127;22;20022;-82
2021/11/02 14:28:05;;;;;;;1.25;0.70;;;10.50;90.60;;;;;;6279699;22;20011;-84
2021/11/02 14:30:40;;;;;;;0.80;0.80;;;10.50;90.60;;;;;;6279919;22;20086;-84
2021/11/02 14:33:08;;;;;;;0.60;0.57;;;10.50;90.60;;;;;;6305727;22;20003;-79
2021/11/02 14:35:50;;;;;;;1.13;0.90;;;10.60;90.50;;;;;;6335549;22;20407;-83
2021/11/02 14:38:33;;;;;;;;;;;10.50;90.50;;;;;;6173005;23;20051;-84
2021/11/02 14:41:32;;;;;;;0.40;0.30;;;10.60;90.50;;;;;;6117251;23;19908;-80
2021/11/02 14:44:31;;;;;;;0.40;0.40;;;10.50;90.50;;;;;;6182067;23;20032;-81
2021/11/02 14:46:59;;;;;;;0.88;0.40;;;10.40;90.50;;;;;;6156925;23;20017;-81
2021/11/02 14:49:42;;;;;;;0.25;0.25;;;10.40;90.60;;;;;;6181689;23;20013;-80
2021/11/02 14:52:36;;;;;;;0.30;0.30;;;10.20;90.70;;;;;;6160450;23;20005;-87
2021/11/02 14:55:02;;;;;;;0.30;0.30;;;10.00;90.80;;;;;;6160335;23;20009;-80
2021/11/02 14:57:38;;;;;;;1.20;0.40;;;10.00;90.80;;;;;;6182910;23;20025;-84
2021/11/02 15:04:06;;;;;;;;;;;9.80;91.00;;;;;;5994990;23;20027;-83
2021/11/02 15:06:35;;;;;;;0.20;0.20;;;9.80;91.00;;;;;;6003624;23;19909;-79
2021/11/02 15:09:07;;;;;;;0.30;0.30;;;9.70;91.10;;;;;;6100062;23;20024;-83
2021/11/02 15:11:34;;;;;;;0.35;0.35;;;9.70;91.10;;;;;;6157608;23;20075;-79
2021/11/02 15:14:05;;;;;;;0.20;0.20;;;9.70;91.10;;;;;;6163789;23;20013;-80
2021/11/02 15:17:11;;;;;;;0.20;0.20;;;9.70;91.10;;;;;;6181248;23;20140;-83
2021/11/02 15:19:39;;;;;;;0.30;0.30;;;9.60;91.10;;;;;;6207079;23;20016;-82
2021/11/02 15:23:00;;;;;;;0.22;0.20;;;9.60;91.10;;;;;;6211405;23;20079;-84
2021/11/02 15:25:26;;;;;;;0.30;0.30;;;9.60;91.10;;;;;;6152074;23;20539;-82
2021/11/02 15:28:10;;;;;;;0.40;0.40;;;9.60;91.10;;;;;;6130607;23;20009;-90
2021/11/02 15:30:39;;;;;;;0.20;0.20;;;9.70;91.10;;;;;;6154765;23;20005;-84
2021/11/02 15:33:05;;;;;;;0.30;0.30;;;9.50;91.10;;;;;;6153900;23;20096;-82
2021/11/02 15:35:48;;;;;;;0.30;0.30;;;9.60;91.10;;;;;;6160960;23;20006;-83
2021/11/02 15:38:14;;;;;;;0.30;0.30;;;9.60;91.10;;;;;;6125147;23;20108;-85
2021/11/02 15:40:39;;;;;;;0.55;0.55;;;9.50;91.00;;;;;;6087077;23;20041;-81
2021/11/02 15:43:07;;;;;;;0.68;0.60;;;9.50;91.00;;;;;;6092838;23;20085;-82
2021/11/02 15:45:38;;;;;;;0.65;0.55;;;9.60;91.10;;;;;;6113725;23;20022;-86
2021/11/02 15:48:11;;;;;;;0.60;0.50;;;9.60;91.10;;;;;;6070286;23;20431;-82
2021/11/02 15:50:42;;;;;;;0.65;0.60;;;9.60;91.10;;;;;;6112302;23;20026;-82
2021/11/02 15:53:09;;;;;;;0.60;0.60;;;9.60;91.00;;;;;;6071103;23;20372;-84
2021/11/02 15:56:11;;;;;;;0.47;0.40;;;9.60;91.00;;;;;;6109765;23;20033;-82
2021/11/02 15:59:32;;;;;;;0.60;0.60;;;9.60;91.00;;;;;;6097573;23;20014;-85
2021/11/02 16:01:58;;;;;;;0.87;0.60;;;9.60;91.00;;;;;;6028987;23;20015;-82
2021/11/02 16:04:30;;;;;;;0.68;0.68;;;9.60;91.00;;;;;;6009486;23;20030;-85
2021/11/02 16:07:32;;;;;;;0.60;0.52;;;9.50;91.00;;;;;;5958073;23;20020;-83
2021/11/02 16:09:59;;;;;;;0.68;0.60;;;9.60;91.00;;;;;;5979007;23;20027;-84
2021/11/02 16:12:31;;;;;;;1.35;0.80;;;9.60;91.00;;;;;;6043544;23;20082;-82
2021/11/02 16:15:15;;;;;;;0.90;0.77;;;9.60;91.00;;;;;;6066197;23;20503;-85
2021/11/02 16:17:54;;;;;;;0.98;0.80;;;9.60;91.00;;;;;;6050515;23;20047;-83
2021/11/02 16:20:36;;;;;;;0.95;0.80;;;9.60;91.00;;;;;;6000514;23;20016;-83
2021/11/02 16:23:08;;;;;;;0.77;0.70;;;9.50;90.90;;;;;;5957256;23;20012;-81
2021/11/02 16:25:38;;;;;;;1.23;0.82;;;9.50;91.00;;;;;;5998625;23;20074;-81
2021/11/02 16:28:07;;;;;;;1.90;0.90;;;9.50;91.00;;;;;;5979404;23;20012;-82
2021/11/02 16:30:41;;;;;;;0.80;0.80;;;9.50;91.00;;;;;;5999579;23;20073;-83
2021/11/02 16:33:08;;;;;;;1.10;0.80;;;9.70;91.00;;;;;;6039428;23;20498;-84
2021/11/02 16:35:44;;;;;;;0.75;0.73;;;9.50;91.00;;;;;;6040756;23;20400;-87
2021/11/02 17:06:22;;;;;;;0.40;0.40;;;9.30;90.90;;;;;;6289864;22;20118;-81
2021/11/02 17:09:08;;;;;;;0.47;0.30;;;9.30;90.90;;;;;;6284204;22;20006;-81
2021/11/02 17:11:42;;;;;;;0.90;0.32;;;9.20;90.90;;;;;;6288844;22;20007;-80
2021/11/02 17:14:11;;;;;;;0.30;0.30;;;9.20;91.00;;;;;;6310902;22;20022;-80
2021/11/02 17:16:47;;;;;;;0.85;0.32;;;9.20;91.00;;;;;;6310765;22;20014;-81
2021/11/02 17:19:14;;;;;;;0.30;0.30;;;9.20;91.10;;;;;;6287770;22;20034;-82
2021/11/02 17:29:50;;;;;;;0.30;0.20;;;9.00;91.10;;;;;;6081968;23;20103;-86
2021/11/02 17:32:30;;;;;;;0.20;0.20;;;9.00;91.20;;;;;;6061360;23;20026;-85
2021/11/02 17:35:42;;;;;;;0.20;0.20;;;8.90;91.10;;;;;;6026257;23;20472;-85
2021/11/02 17:39:03;;;;;;;0.30;0.30;;;9.00;91.20;;;;;;6013730;23;20000;-85
2021/11/02 17:41:55;;;;;;;0.20;0.20;;;8.90;91.20;;;;;;6003153;23;20035;-87
2021/11/02 17:45:04;;;;;;;0.20;0.20;;;8.90;91.20;;;;;;6046704;23;20082;-86
2021/11/02 17:47:56;;;;;;;0.32;0.30;;;9.00;91.30;;;;;;6019963;23;20036;-86
2021/11/02 17:52:03;;;;;;;0.40;0.30;;;8.80;91.30;;;;;;5959029;24;20104;-85
2021/11/02 17:54:32;;;;;;;0.28;0.28;;;8.80;91.30;;;;;;5906019;24;20025;-86
2021/11/02 18:01:13;;;;;;;0.28;0.28;;;8.60;91.30;;;;;;5824996;24;20019;-85
2021/11/02 18:04:19;;;;;;;0.45;0.35;;;8.70;91.40;;;;;;5793776;24;20023;-86
2021/11/02 18:07:42;;;;;;;0.40;0.40;;;8.60;91.30;;;;;;5773448;24;20050;-86
2021/11/02 18:11:01;;;;;;;0.40;0.35;;;8.60;91.40;;;;;;5750581;24;20020;-86
2021/11/02 18:28:04;;;;;;;0.30;0.30;;;8.60;91.30;;;;;;5654733;25;20032;-85
2021/11/02 18:30:53;;;;;;;0.30;0.30;;;8.60;91.20;;;;;;5609765;25;20022;-85
2021/11/02 18:37:17;;;;;;;0.70;0.52;;;8.60;91.20;;;;;;5655033;25;20077;-85
2021/11/02 18:40:29;;;;;;;0.28;0.28;;;8.60;91.20;;;;;;5656455;25;20029;-86
2021/11/02 18:43:39;;;;;;;0.20;0.20;;;8.60;91.20;;;;;;5720810;25;20031;-86
2021/11/02 18:46:45;;;;;;;0.20;0.20;;;8.60;91.20;;;;;;5647009;25;20485;-86
2021/11/02 18:49:40;;;;;;;0.40;0.30;;;8.50;91.50;;;;;;5646197;25;20022;-86
2021/11/02 18:52:26;;;;;;;0.10;0.10;;;8.60;91.20;;;;;;5609388;25;20041;-86
2021/11/02 18:55:42;;;;;;;0.40;0.30;;;8.50;91.20;;;;;;5622851;25;20026;-86
2021/11/02 18:58:05;;;;;;;0.57;0.30;;;8.60;91.20;;;;;;5596645;25;20034;-86
2021/11/02 19:00:57;;;;;;;0.60;0.50;;;8.60;91.20;;;;;;5664855;25;20081;-85
2021/11/02 19:03:41;;;;;;;0.52;0.30;;;8.60;91.10;;;;;;5645501;25;20179;-86
2021/11/02 19:06:15;;;;;;;1.08;0.45;;;8.80;91.20;;;;;;5586853;25;20015;-85
2021/11/02 19:08:46;;;;;;;0.68;0.47;;;8.60;91.20;;;;;;5558759;25;20123;-85
2021/11/02 19:11:20;;;;;;;0.90;0.57;;;8.60;91.10;;;;;;5543843;25;20039;-85
2021/11/02 19:14:07;;;;;;;0.77;0.52;;;8.60;91.10;;;;;;5573955;25;20015;-86
2021/11/02 19:17:08;;;;;;;0.52;0.50;;;8.60;91.20;;;;;;5655820;25;20037;-85
2021/11/02 19:19:50;;;;;;;1.00;0.70;;;8.60;91.20;;;;;;5680482;25;20025;-86
2021/11/02 19:22:32;;;;;;;1.88;0.90;;;8.60;91.20;;;;;;5695880;24;20119;-86
2021/11/02 19:25:01;;;;;;;1.17;0.70;;;8.50;91.20;;;;;;5781106;24;20891;-85
2021/11/02 19:27:35;;;;;;;0.90;0.70;;;8.50;91.30;;;;;;5805619;24;20019;-86
2021/11/02 19:30:10;;;;;;;1.08;0.80;;;8.50;91.30;;;;;;5819068;24;20046;-87
2021/11/02 19:32:36;;;;;;;0.50;0.50;;;8.40;91.30;;;;;;5861140;24;20046;-86
2021/11/02 19:35:03;;;;;;;1.02;0.60;;;8.40;91.40;;;;;;5883907;24;20014;-87
2021/11/02 19:37:29;;;;;;;2.65;0.95;;;8.40;91.40;;;;;;5923160;24;20025;-86
2021/11/02 19:39:55;;;;;;;0.88;0.77;;;8.30;91.40;;;;;;5941478;24;20101;-86
2021/11/02 19:42:21;;;;;;;2.30;1.20;;;8.30;91.50;;;;;;5925223;24;20096;-86
2021/11/02 19:44:47;;;;;;;1.95;1.13;;;8.30;91.50;;;;;;5944391;24;20020;-87
2021/11/02 19:47:16;;;;;;;2.10;1.20;;;8.30;91.50;;;;;;5926425;24;20035;-86
2021/11/02 19:49:43;;;;;;;1.83;1.15;;;8.30;91.50;;;;;;5955096;23;20040;-86
2021/11/02 19:52:09;;;;;;;2.35;1.23;;;8.30;91.50;;;;;;6000408;23;20011;-86
2021/11/02 19:54:36;;;;;;;1.80;1.20;;;8.30;91.50;;;;;;6059263;23;20017;-86
2021/11/02 19:57:03;;;;;;;2.90;1.60;;;8.30;91.50;;;;;;6008996;23;20080;-86
2021/11/02 19:59:30;;;;;;;3.60;1.65;;;8.30;91.50;;;;;;6103190;23;20420;-86
2021/11/02 20:01:58;;;;;;;2.63;1.73;;;8.20;91.40;;;;;;6169132;23;20551;-87
2021/11/02 20:04:25;;;;;;;3.03;1.73;;;8.30;91.50;;;;;;6187813;23;20030;-86